EST,Max TemperatureF,Mean TemperatureF,Min TemperatureF,Max Dew PointF,MeanDew PointF,Min DewpointF,Max Humidity, Mean Humidity, Min Humidity, Max Sea Level PressureIn, Mean Sea Level PressureIn, Min Sea Level PressureIn, Max VisibilityMiles, Mean VisibilityMiles, Min VisibilityMiles, Max Wind SpeedMPH, Mean Wind SpeedMPH, Max Gust SpeedMPH,PrecipitationIn, CloudCover, Events, WindDirDegrees
2013-11-1,61,53,45,60,44,39,97,83,66,29.65,29.46,29.14,10,10,2,29,16,41,0.00,8,Rain,238
2013-11-2,46,40,34,46,41,33,100,93,83,30.10,29.82,29.64,10,9,3,12,5,,0.00,7,Rain,333
2013-11-3,44,37,30,37,32,30,100,85,64,30.42,30.30,30.10,10,10,7,10,3,,0.00,3,,92
2013-11-4,50,41,33,35,31,27,92,70,43,30.44,30.37,30.27,10,10,10,17,11,23,0.00,0,,130
2013-11-5,55,49,43,48,43,35,89,75,66,30.33,30.27,30.15,10,10,5,13,7,17,0.00,7,,175
2013-11-6,55,48,41,54,47,39,97,85,62,30.14,29.92,29.77,10,9,3,20,12,30,0.00,8,Rain,205
2013-11-7,44,38,32,40,31,26,96,76,52,30.13,30.08,29.98,10,10,7,20,10,29,0.00,6,Rain,279
2013-11-8,44,36,29,32,29,25,99,77,49,30.26,30.19,30.10,10,10,7,12,6,16,0.00,4,,242
2013-11-9,55,46,37,40,35,30,75,63,51,30.14,29.90,29.78,10,10,10,22,12,33,0.00,5,,219
2013-11-10,47,40,33,36,30,28,85,64,52,30.25,30.11,29.89,10,10,10,24,12,32,0.00,5,Rain,276
2013-11-11,43,36,27,39,31,22,99,81,65,30.30,30.12,30.02,10,8,1,15,8,23,0.00,8,Rain-Snow,271
2013-11-12,34,28,22,23,20,17,93,74,54,30.52,30.46,30.31,10,10,10,17,9,24,0.00,3,,306
2013-11-13,39,29,19,26,18,10,93,65,33,30.51,30.34,30.12,10,10,7,17,8,30,0.00,0,Snow,220
2013-11-14,51,42,32,25,21,18,58,45,34,30.13,30.03,29.94,10,10,10,18,13,28,0.00,0,,219
2013-11-15,52,44,36,29,26,22,62,48,34,30.04,30.00,29.96,10,10,10,14,9,20,0.00,1,,199
2013-11-16,56,44,33,54,42,29,97,84,62,30.07,29.95,29.77,10,9,2,23,9,29,0.00,5,Rain,163
2013-11-17,62,54,45,60,55,41,99,92,77,29.76,29.50,29.21,10,9,1,38,16,54,0.00,8,Rain,190
2013-11-18,45,38,32,41,30,22,83,71,63,30.11,29.81,29.48,10,10,10,31,21,45,0.00,8,,269
2013-11-19,39,32,25,24,21,18,86,63,46,30.38,30.29,30.12,10,10,7,14,7,22,0.00,3,,331
2013-11-20,44,34,23,32,24,17,96,72,35,30.40,30.32,30.21,10,10,5,18,6,25,0.00,1,,131
2013-11-21,47,42,38,43,36,27,99,78,57,30.26,30.21,30.16,10,8,2,13,8,20,0.00,8,Rain,169
2013-11-22,44,34,24,44,35,22,100,90,73,30.35,30.22,30.12,10,6,0,18,5,25,0.00,6,Fog-Rain,297
2013-11-23,27,20,13,23,15,4,94,74,45,30.49,30.34,30.25,10,9,0,24,10,34,0.00,6,Snow,299
2013-11-24,23,16,10,14,9,6,84,72,53,30.56,30.49,30.35,10,10,10,14,8,17,0.00,3,,274
2013-11-25,31,24,18,26,13,5,93,63,42,30.35,30.15,30.04,10,10,5,17,11,26,0.00,5,Snow,212
2013-11-26,32,30,27,28,26,22,96,88,80,30.06,29.99,29.91,10,8,2,14,8,21,0.00,8,Snow,227
2013-11-27,27,21,15,24,13,7,88,71,49,30.16,30.00,29.91,10,10,2,18,11,31,0.00,4,Snow,313
2013-11-28,27,20,14,20,15,10,91,75,55,30.38,30.26,30.17,10,9,2,9,5,,0.00,7,Snow,207
2013-11-29,32,26,19,21,18,15,90,77,52,30.62,30.54,30.39,10,9,7,9,1,,0.00,4,Snow,138
2013-11-30,43,34,26,27,24,20,84,66,48,30.49,30.25,30.06,10,10,7,14,9,20,0.00,2,,176